Monday, August 29, 2016
21:47 UTC
  |  Log In   |  Register Free
Airport Search:

Fairfield County Airport
(KFDW)

Fairfield County Airport Diagram
No Airport Diagram Available

FAA data valid effective Jul 21 2016 - Sep 15 2016 (unless otherwise noted).

 
 
 
 
 
 
 
 
 
 
 
 
 
 
Current Aviation Weather for KFDW

Weather Summary


The most recent METAR observation for FDW was updated at: 12:55 UTC
METAR for FDW is not available. Closest METAR is for
METAR

METAR KFDW 292135Z 05008KT 10SM CLR 33/15 A3005 RMK AO1

METAR KFDW 292115Z 05006KT 10SM CLR 33/16 A3006 RMK AO1

METAR KFDW 292055Z 01005KT 10SM CLR 33/17 A3006 RMK AO1

METAR KFDW 292035Z 03005G09KT 10SM CLR 33/18 A3006 RMK AO1 LTG DSNT S

METAR KFDW 292015Z 02008KT 344V054 10SM CLR 33/18 A3007 RMK AO1 LTG DSNT SE AND SW

METAR KFDW 291955Z 02006KT 10SM CLR 32/19 A3007 RMK AO1

METAR KFDW 291935Z 08004KT 10SM CLR 31/20 A3008 RMK AO1

METAR KFDW 291915Z 07005KT 10SM SCT046 31/20 A3008 RMK AO1

METAR KFDW 291855Z 02007KT 10SM CLR 32/20 A3009 RMK AO1

METAR KCAE 292056Z 14009KT 10SM BKN080 28/24 A3004 RMK AO2 LTG DSNT SW SLP169 TS DSNT SE 60029 T02830239 58017

METAR KCDN METAR not available

METAR KCUB 292053Z VRB03KT 10SM SCT100 28/23 A3005 RMK AO2 LTG DSNT S RAB1954E03B29E39 TSB14E38 SLP174 P0000 60015 T02780233 56015

TAF for FDW is not available.
TAF

KCUB - TAF AMD KCUB 292105Z 2921/3018 09005KT P6SM VCSH SCT020 BKN040

KCUB - FM300000 VRB03KT P6SM SCT040 BKN080

KCUB - FM301000 VRB03KT P6SM BKN020

KCUB - FM301500 05007KT P6SM BKN035 =

KCAE - TAF AMD KCAE 292105Z 2921/3018 04007KT P6SM VCSH BKN040

KCAE - FM300000 VRB03KT P6SM SCT040 BKN080

KCAE - FM301000 VRB03KT P6SM BKN020

KCAE - FM301500 05007KT P6SM BKN035 =

KMMT - TAF AMD KMMT 291900Z 2919/3021 03008KT 9999 SCT030 BKN060 QNH3002INS

KMMT - TEMPO 2919/2921 VRB10G15KT 4800 -TSRA BKN030CB

KMMT - BECMG 2923/2924 VRB06KT 9999 SCT030 SCT250 QNH3002INS

KMMT - BECMG 3003/3004 VRB06KT 8000 BR SCT008 QNH3004INS

KMMT - TEMPO 3006/3013 3200 BR BKN008

KMMT - BECMG 3015/3016 03012KT 9999 NSW FEW020 SCT040 SCT250 QNH3005INS

KMMT - TEMPO 3018/3021 VRB15G25KT 4800 -TSRA BKN040CB TX31/2921Z TN23/3012Z AMD 291900 =

GlobalAir.com is loading additional information.
 Current Weather at FDW
90.0 F° (32.0 C°)

North winds at 6.9 mph
Pressure:
30.07 in
Humidity:
46%
Wind:
North at 6.9 mph
Dew Point:
66.2 F° (19.0 C°)
Visibility:
10.00 mi
FDW NOAA Radar




Find All Airport Services Find A Hotel Find A Rental Car Find A Golf Course Find A Restaurant $100 Hamburger



Airport Weather Forecast for KFDW

Translated METAR for KFDW (2135 UTC)
METAR:
KFDW 292135Z AUTO Fairfield County, Winnsboro, SC (KFDW). Aug 29, 2135Z, Automated. Wind from 050° at 8 knots, 10 statute miles visibility, Clear Skies, Temperature 33°C, Dewpoint 15°C, Altimeter is 30.05. Remarks: automated station without precipitation discriminator
Conditions at:
KFDW (Fairfield County, SC) observed 2135 UTC 29 August 2016
Temperature:
90.0 F° (32.0 C°)
Dewpoint:
not reported - refer to area weather report
Pressure:
30.07 Hg
Winds:
not reported
Visibility:
10.00
Ceiling:
at least 12,000 feet AGL
Clouds:
not reported - refer to area weather report
Remarks:
site is un-manned

Translated TAF for TAF for FDW is not available. Refer to local area forecast.
FBO's on the Field
FBO Company Facility Photos Services Transportation Aviation Fuel Prices: Prices include tax
Catering Weather Repair Courtesy Rental Type 100LL JetA JetA+ MOGAS 8087
 
S & S Aviation Services

This FBO has not yet been rated
FS:Shell
Last Updated: Aug-05
Login to update fuel prices
SS:
Contact S & S Aviation ServicesMore FBO Information
 
Add another FBO Facility Photos Catering Weather Repair Courtesy Rental Type 100LL JetA JetA+ MOGAS 8087
Services Transportation Aviation Fuel Prices: Prices include tax


model-print
model-print
model-print
model-print